Terminal Aerodrome Forecast
Issued by NWS Cleveland, OH

Home | Current Version | Previous Version | Graphics & Text | Print | Product List | Glossary On
Versions: 1 2 3 4 5 6 7 8 9 10 11 12 13 14 15 16
403
FTUS41 KCLE 042020 AAA
TAFCAK
TAF AMD
KCAK 042020Z 0420/0518 28010KT P6SM SCT025 OVC035
     FM050100 28010KT P6SM OVC025
     FM050700 28008KT P6SM SCT025
      TEMPO 0507/0511 BKN025
     FM051600 27008KT P6SM BKN035=

USA.gov is the U.S. government's official web portal to all federal, state and local government web resources and services.